Time;durP1;ratioP1;P1;durP2;ratioP2;P2;SDS_P1;SDS_P2;PMS_P1;PMS_P2;Temp;Humidity;BMP_temperature;BMP_pressure;BME280_temperature;BME280_humidity;BME280_pressure;Samples;Min_cycle;Max_cycle;Signal;HPM_P1;HPM_P2
2023/10/14 00:02:05;;;;;;;12.52;2.33;;;13.10;99.90;;;;;;5035101;28;20041;-72
2023/10/14 00:04:31;;;;;;;13.25;2.50;;;;;;;;;;5052681;28;20445;-72
2023/10/14 00:06:57;;;;;;;20.00;2.55;;;;;;;;;;5035335;28;20056;-72
2023/10/14 00:09:25;;;;;;;8.00;1.90;;;;;;;;;;5036160;28;20366;-72
2023/10/14 00:11:54;;;;;;;12.73;2.03;;;;;;;;;;5051639;28;20056;-72
2023/10/14 00:14:23;;;;;;;13.13;2.47;;;;;;;;;;5051339;28;20138;-71
2023/10/14 00:16:49;;;;;;;13.25;2.17;;;;;;;;;;5051368;28;20055;-72
2023/10/14 00:19:18;;;;;;;9.77;2.00;;;;;;;;;;5066464;28;20041;-72
2023/10/14 00:21:44;;;;;;;11.85;1.88;;;;;;;;;;5071383;28;20044;-72
2023/10/14 00:24:16;;;;;;;9.15;2.08;;;;;;;;;;5054842;28;20037;-72
2023/10/14 00:26:47;;;;;;;8.68;1.73;;;;;;;;;;5067678;28;20047;-71
2023/10/14 00:29:19;;;;;;;9.98;1.90;;;;;;;;;;5054748;28;20044;-71
2023/10/14 00:31:46;;;;;;;9.80;2.40;;;;;;;;;;5061079;28;20045;-72
2023/10/14 00:34:15;;;;;;;10.68;1.77;;;;;;;;;;5067743;28;20047;-71
2023/10/14 00:36:42;;;;;;;8.55;1.80;;;;;;;;;;5071084;28;20468;-72
2023/10/14 00:39:12;;;;;;;10.88;2.00;;;;;;;;;;5071534;28;20048;-72
2023/10/14 00:41:49;;;;;;;14.13;2.28;;;;;;;;;;5066164;28;20488;-72
2023/10/14 00:44:16;;;;;;;9.77;2.95;;;;;;;;;;5070626;28;20044;-72
2023/10/14 00:46:52;;;;;;;9.60;1.77;;;12.80;99.90;;;;;;5070175;28;20083;-72
2023/10/14 00:49:31;;;;;;;11.32;1.70;;;12.60;99.90;;;;;;5039890;28;20048;-72
2023/10/14 00:52:05;;;;;;;10.00;1.80;;;12.80;99.90;;;;;;5051133;28;20047;-72
2023/10/14 00:59:43;;;;;;;9.37;2.10;;;13.60;99.90;;;;;;5053588;28;20404;-72
2023/10/14 01:02:09;;;;;;;7.72;1.58;;;;;;;;;;5064236;28;20040;-72
2023/10/14 01:04:36;;;;;;;8.25;1.63;;;;;;;;;;5039456;28;20452;-72
2023/10/14 01:07:05;;;;;;;6.03;1.73;;;;;;;;;;5069702;28;20094;-71
2023/10/14 01:13:06;;;;;;;11.20;1.80;;;;;;;;;;5072662;28;20032;-72
2023/10/14 01:15:10;;;;;;;10.85;1.80;;;;;;;;;;5070781;28;20302;-71
2023/10/14 01:17:36;;;;;;;6.22;1.60;;;;;;;;;;5073967;28;20083;-71
2023/10/14 01:22:43;;;;;;;12.90;1.88;;;12.90;99.90;;;;;;5073090;28;20048;-71
2023/10/14 01:25:14;;;;;;;9.55;1.85;;;;;;;;;;5057716;28;20051;-71
2023/10/14 01:27:44;;;;;;;16.33;2.45;;;;;;;;;;5041451;28;20045;-71
2023/10/14 01:30:15;;;;;;;18.55;2.20;;;12.50;99.90;;;;;;5038487;28;20048;-71
2023/10/14 01:35:24;;;;;;;11.77;1.92;;;;;;;;;;5049127;28;20496;-71
2023/10/14 01:37:58;;;;;;;10.10;1.90;;;12.60;99.90;;;;;;5072478;28;20520;-71
2023/10/14 01:42:58;;;;;;;13.50;2.25;;;;;;;;;;5074199;28;20400;-71
2023/10/14 01:45:30;;;;;;;9.15;1.40;;;12.60;99.90;;;;;;5056657;28;20052;-72
2023/10/14 01:48:12;;;;;;;13.77;2.72;;;;;;;;;;5070438;28;20048;-72
2023/10/14 01:50:46;;;;;;;12.38;1.85;;;;;;;;;;5062396;28;20032;-72
2023/10/14 01:53:21;;;;;;;6.80;1.70;;;;;;;;;;5072839;28;20054;-72
2023/10/14 01:55:47;;;;;;;11.55;2.50;;;;;;;;;;5073049;28;20158;-72
2023/10/14 01:58:23;;;;;;;7.35;1.50;;;;;;;;;;5037084;28;20095;-72
2023/10/14 02:00:58;;;;;;;10.27;1.92;;;;;;;;;;5053838;28;20099;-72
2023/10/14 02:03:24;;;;;;;14.45;2.03;;;;;;;;;;5053681;28;20055;-72
2023/10/14 02:05:53;;;;;;;11.20;2.08;;;;;;;;;;5053019;28;20037;-72
2023/10/14 02:08:23;;;;;;;12.98;2.03;;;12.40;99.90;;;;;;5065176;28;20049;-72
2023/10/14 02:10:50;;;;;;;8.85;2.22;;;;;;;;;;5072573;28;20041;-72
2023/10/14 02:13:16;;;;;;;9.32;2.10;;;;;;;;;;5073352;28;20047;-72
2023/10/14 02:15:50;;;;;;;13.65;2.38;;;12.70;99.90;;;;;;5073051;28;20037;-72
2023/10/14 02:18:22;;;;;;;10.32;1.80;;;12.60;99.90;;;;;;5067840;28;20492;-71
2023/10/14 02:20:56;;;;;;;7.95;2.10;;;12.70;99.90;;;;;;5036746;28;20083;-72
2023/10/14 02:23:44;;;;;;;13.52;2.03;;;12.70;99.90;;;;;;5053050;28;20131;-71
2023/10/14 02:26:33;;;;;;;11.93;1.92;;;;;;;;;;5054235;28;20102;-71
2023/10/14 02:28:59;;;;;;;6.68;1.70;;;;;;;;;;5065510;28;20076;-71
2023/10/14 02:31:29;;;;;;;12.18;2.10;;;12.60;99.90;;;;;;5044304;28;20102;-71
2023/10/14 02:33:55;;;;;;;14.18;2.60;;;;;;;;;;5053484;28;20033;-71
2023/10/14 02:36:21;;;;;;;12.80;2.22;;;;;;;;;;5054419;28;20044;-71
2023/10/14 02:38:55;;;;;;;9.95;2.17;;;12.30;99.90;;;;;;5052951;28;20511;-71
2023/10/14 02:41:22;;;;;;;12.23;2.47;;;;;;;;;;5053709;28;20488;-71
2023/10/14 02:43:49;;;;;;;11.73;2.05;;;;;;;;;;5052910;28;20156;-71
2023/10/14 02:46:25;;;;;;;14.20;3.20;;;;;;;;;;5061970;28;20053;-71
2023/10/14 02:48:54;;;;;;;11.43;1.88;;;;;;;;;;5056134;28;20041;-71
2023/10/14 02:51:35;;;;;;;8.93;2.03;;;;;;;;;;5056457;28;20438;-72
2023/10/14 02:54:13;;;;;;;14.95;2.20;;;12.30;99.90;;;;;;5072521;28;20047;-71
2023/10/14 02:59:57;;;;;;;13.65;1.88;;;;;;;;;;5052771;28;20041;-71
2023/10/14 03:02:27;;;;;;;12.05;1.85;;;;;;;;;;5051202;28;20055;-71
2023/10/14 03:07:33;;;;;;;18.17;2.17;;;12.40;99.90;;;;;;5067737;28;20127;-71
2023/10/14 03:10:34;;;;;;;11.77;2.35;;;12.30;99.90;;;;;;5049384;28;20049;-71
2023/10/14 03:12:51;;;;;;;10.40;2.33;;;;;;;;;;5069502;28;20047;-71
2023/10/14 03:15:19;;;;;;;11.98;2.10;;;12.50;99.90;;;;;;5072207;28;20066;-71
2023/10/14 03:18:01;;;;;;;11.38;1.70;;;;;;;;;;5055229;28;20496;-72
2023/10/14 03:22:59;;;;;;;7.53;1.58;;;;;;;;;;5069366;28;20044;-71
2023/10/14 03:25:29;;;;;;;9.43;2.00;;;12.30;99.90;;;;;;5054046;28;20396;-71
2023/10/14 03:28:06;;;;;;;7.60;1.63;;;;;;;;;;5052340;28;20076;-71
2023/10/14 03:30:37;;;;;;;11.52;2.53;;;;;;;;;;5070567;28;20433;-71
2023/10/14 03:33:09;;;;;;;8.85;2.05;;;12.30;99.90;;;;;;5071826;28;20412;-71
2023/10/14 03:35:35;;;;;;;9.68;2.17;;;;;;;;;;5071621;28;20083;-71
2023/10/14 03:38:07;;;;;;;10.07;1.80;;;;;;;;;;5061188;28;20049;-71
2023/10/14 03:43:18;;;;;;;13.05;2.10;;;;;;;;;;5051904;28;20045;-71
2023/10/14 03:48:35;;;;;;;15.00;2.17;;;;;;;;;;5052791;28;20040;-71
2023/10/14 03:51:04;;;;;;;11.95;2.10;;;;;;;;;;5035450;28;20090;-71
2023/10/14 03:53:34;;;;;;;13.65;2.03;;;;;;;;;;5051777;28;20481;-71
2023/10/14 03:56:00;;;;;;;8.30;2.10;;;12.30;99.90;;;;;;5051553;28;20075;-71
2023/10/14 03:58:29;;;;;;;11.57;2.10;;;;;;;;;;5051291;28;20042;-71
2023/10/14 04:00:57;;;;;;;12.85;2.50;;;;;;;;;;5065359;28;20374;-71
2023/10/14 04:03:41;;;;;;;13.48;1.98;;;;;;;;;;5049301;28;20509;-71
2023/10/14 04:06:15;;;;;;;10.98;2.15;;;;;;;;;;5071584;28;20041;-71
2023/10/14 04:08:50;;;;;;;13.82;1.83;;;;;;;;;;5071399;28;20040;-71
2023/10/14 04:11:17;;;;;;;11.40;2.10;;;;;;;;;;5071838;28;20091;-71
2023/10/14 04:14:03;;;;;;;12.25;2.05;;;;;;;;;;5067859;28;20098;-71
2023/10/14 04:19:44;;;;;;;9.95;2.08;;;;;;;;;;5084531;28;20502;-71
2023/10/14 04:22:00;;;;;;;13.88;2.33;;;;;;;;;;5051784;28;20049;-71
2023/10/14 04:29:49;;;;;;;11.57;1.83;;;;;;;;;;5051512;28;20038;-71
2023/10/14 04:32:24;;;;;;;13.90;2.45;;;;;;;;;;5051580;28;20044;-71
2023/10/14 04:34:54;;;;;;;16.05;3.80;;;;;;;;;;5054931;28;20067;-71
2023/10/14 04:37:21;;;;;;;13.27;2.10;;;;;;;;;;5056309;28;20049;-71
2023/10/14 04:39:48;;;;;;;14.60;2.25;;;;;;;;;;5055172;28;20066;-72
2023/10/14 04:44:59;;;;;;;11.55;2.55;;;;;;;;;;5057012;28;20041;-72
2023/10/14 04:47:37;;;;;;;14.60;2.25;;;;;;;;;;5056467;28;20131;-72
2023/10/14 04:50:10;;;;;;;10.70;2.00;;;;;;;;;;5069198;28;20396;-72
2023/10/14 04:52:41;;;;;;;15.35;2.05;;;;;;;;;;5058664;28;20044;-72
2023/10/14 04:58:05;;;;;;;13.57;2.28;;;;;;;;;;5055877;28;20369;-71
2023/10/14 05:00:32;;;;;;;15.27;2.08;;;;;;;;;;5064535;28;20105;-72
2023/10/14 05:02:59;;;;;;;13.07;2.13;;;;;;;;;;5049326;28;20435;-71
2023/10/14 05:05:32;;;;;;;15.90;2.47;;;11.90;99.90;;;;;;5055787;28;20095;-71
2023/10/14 05:07:59;;;;;;;13.23;1.63;;;12.00;99.90;;;;;;5038496;28;20068;-71
2023/10/14 05:10:28;;;;;;;10.05;2.28;;;12.00;99.90;;;;;;5055725;28;20120;-72
2023/10/14 05:12:55;;;;;;;12.90;1.90;;;12.10;99.90;;;;;;5054603;28;20037;-72
2023/10/14 05:15:26;;;;;;;9.50;1.90;;;;;;;;;;5057168;28;20037;-72
2023/10/14 05:17:53;;;;;;;8.98;2.03;;;;;;;;;;5054701;28;20045;-72
2023/10/14 05:20:29;;;;;;;12.13;2.38;;;11.80;99.90;;;;;;5055384;28;20040;-72
2023/10/14 05:22:56;;;;;;;13.05;1.83;;;;;;;;;;5054437;28;20079;-72
2023/10/14 05:25:27;;;;;;;16.27;2.33;;;11.70;99.90;;;;;;5055172;28;20052;-71
2023/10/14 05:28:06;;;;;;;14.63;2.97;;;;;;;;;;5054598;28;20056;-72
2023/10/14 05:30:33;;;;;;;14.40;2.50;;;;;;;;;;5060232;28;20040;-71
2023/10/14 05:33:13;;;;;;;16.80;2.55;;;;;;;;;;5074315;28;20130;-72
2023/10/14 05:35:43;;;;;;;16.27;2.70;;;;;;;;;;5069471;28;20041;-71
2023/10/14 05:38:10;;;;;;;17.77;2.88;;;;;;;;;;5074382;28;20048;-71
2023/10/14 05:40:40;;;;;;;12.38;2.30;;;;;;;;;;5068882;28;20043;-71
2023/10/14 05:43:06;;;;;;;18.48;2.17;;;;;;;;;;5037700;28;20136;-71
2023/10/14 05:45:38;;;;;;;18.17;3.08;;;11.90;99.90;;;;;;5058403;28;20076;-71
2023/10/14 05:48:05;;;;;;;13.75;2.45;;;;;;;;;;5053962;28;20511;-71
2023/10/14 05:50:32;;;;;;;16.65;2.10;;;;;;;;;;5058818;28;20526;-72
2023/10/14 05:52:59;;;;;;;9.05;3.13;;;;;;;;;;5054123;28;20033;-72
2023/10/14 05:55:26;;;;;;;11.88;2.25;;;;;;;;;;5060457;28;20044;-72
2023/10/14 05:57:52;;;;;;;11.82;2.28;;;;;;;;;;5053599;28;20485;-71
2023/10/14 06:00:21;;;;;;;20.83;2.80;;;;;;;;;;5041163;28;20051;-71
2023/10/14 06:02:48;;;;;;;13.52;1.92;;;;;;;;;;5038554;28;20056;-71
2023/10/14 06:05:16;;;;;;;12.68;2.75;;;;;;;;;;5053460;28;20485;-72
2023/10/14 06:07:46;;;;;;;22.65;3.47;;;11.90;99.90;;;;;;5052307;28;20235;-72
2023/10/14 06:10:13;;;;;;;13.70;2.60;;;;;;;;;;5056007;28;20036;-71
2023/10/14 06:12:39;;;;;;;14.57;2.35;;;;;;;;;;5070415;28;20072;-72
2023/10/14 06:15:09;;;;;;;15.02;2.25;;;;;;;;;;5073729;28;20044;-72
2023/10/14 06:17:38;;;;;;;12.38;2.30;;;;;;;;;;5068721;28;20067;-72
2023/10/14 06:20:08;;;;;;;18.83;2.58;;;;;;;;;;5055662;28;20086;-72
2023/10/14 06:22:35;;;;;;;17.85;2.53;;;;;;;;;;5038480;28;20041;-72
2023/10/14 06:25:01;;;;;;;17.90;2.63;;;;;;;;;;5049325;28;20036;-72
2023/10/14 06:27:27;;;;;;;18.95;2.25;;;;;;;;;;5053581;28;20052;-72
2023/10/14 06:29:55;;;;;;;18.92;2.03;;;;;;;;;;5053923;28;20033;-72
2023/10/14 06:32:21;;;;;;;10.43;2.60;;;;;;;;;;5063429;28;20052;-72
2023/10/14 06:34:57;;;;;;;11.82;1.92;;;;;;;;;;5055476;28;20049;-72
2023/10/14 06:37:24;;;;;;;11.70;2.03;;;;;;;;;;5035937;28;20040;-72
2023/10/14 06:39:51;;;;;;;14.90;2.40;;;;;;;;;;5048470;28;20048;-72
2023/10/14 06:42:22;;;;;;;12.95;2.15;;;;;;;;;;5071594;28;20041;-72
2023/10/14 06:44:48;;;;;;;10.93;1.90;;;;;;;;;;5069565;28;20047;-72
2023/10/14 06:47:14;;;;;;;18.00;2.88;;;;;;;;;;5071628;28;20083;-71
2023/10/14 06:49:43;;;;;;;10.82;2.15;;;;;;;;;;5053719;28;20441;-72
2023/10/14 06:52:11;;;;;;;13.68;2.28;;;;;;;;;;5069164;28;20058;-71
2023/10/14 06:54:40;;;;;;;11.10;2.40;;;;;;;;;;5052270;28;20407;-71
2023/10/14 06:57:10;;;;;;;14.77;2.67;;;;;;;;;;5052542;28;20087;-71
2023/10/14 06:59:37;;;;;;;10.98;2.63;;;;;;;;;;5061842;28;20087;-71
2023/10/14 07:02:03;;;;;;;12.30;3.75;;;;;;;;;;5072814;28;20063;-71
2023/10/14 07:04:29;;;;;;;14.60;2.10;;;;;;;;;;5065474;28;20063;-71
2023/10/14 07:06:58;;;;;;;15.02;2.70;;;;;;;;;;5054721;28;20112;-82
2023/10/14 07:09:27;;;;;;;11.25;2.10;;;;;;;;;;5069856;28;20036;-78
2023/10/14 07:11:57;;;;;;;16.98;2.05;;;;;;;;;;5056951;28;20049;-80
2023/10/14 07:14:23;;;;;;;17.25;3.15;;;;;;;;;;5044310;28;20065;-81
2023/10/14 07:16:50;;;;;;;12.43;2.30;;;;;;;;;;5039370;28;20125;-82
2023/10/14 07:19:17;;;;;;;16.50;2.22;;;;;;;;;;5069674;28;20052;-81
2023/10/14 07:21:44;;;;;;;11.23;2.33;;;;;;;;;;5050376;28;20048;-82
2023/10/14 07:24:14;;;;;;;16.45;1.98;;;;;;;;;;5058791;28;20440;-82
2023/10/14 07:26:41;;;;;;;8.32;2.40;;;;;;;;;;5072575;28;20048;-76
2023/10/14 07:29:07;;;;;;;10.85;1.70;;;;;;;;;;5072254;28;20117;-78
2023/10/14 07:31:36;;;;;;;12.30;2.33;;;;;;;;;;5056359;28;20365;-79
2023/10/14 07:34:02;;;;;;;12.95;2.38;;;;;;;;;;5072808;28;20127;-81
2023/10/14 07:36:32;;;;;;;9.07;1.90;;;;;;;;;;5055380;28;20040;-78
2023/10/14 07:39:02;;;;;;;15.00;3.00;;;;;;;;;;5045354;28;20037;-80
2023/10/14 07:41:28;;;;;;;10.43;2.00;;;12.60;99.90;;;;;;5073595;28;20396;-77
2023/10/14 07:43:55;;;;;;;11.65;2.03;;;;;;;;;;5067628;28;20044;-84
2023/10/14 07:46:21;;;;;;;9.15;1.75;;;;;;;;;;5039374;28;20055;-82
2023/10/14 07:48:47;;;;;;;10.20;2.47;;;;;;;;;;5074616;28;20054;-84
2023/10/14 07:51:16;;;;;;;9.93;1.90;;;;;;;;;;5071293;28;20094;-80
2023/10/14 07:53:43;;;;;;;9.13;1.75;;;;;;;;;;5073156;28;20032;-78
2023/10/14 07:56:09;;;;;;;11.40;1.70;;;;;;;;;;5044051;28;20396;-80
2023/10/14 07:58:36;;;;;;;7.80;1.85;;;;;;;;;;5028239;28;20040;-80
2023/10/14 08:01:09;;;;;;;14.52;2.25;;;;;;;;;;5065325;28;20511;-79
2023/10/14 08:03:36;;;;;;;13.02;1.90;;;;;;;;;;5037048;28;20047;-76
2023/10/14 08:06:05;;;;;;;11.38;1.80;;;;;;;;;;5044063;28;20040;-78
2023/10/14 08:08:31;;;;;;;7.30;2.45;;;;;;;;;;5052408;28;20073;-78
2023/10/14 08:11:01;;;;;;;9.57;2.00;;;;;;;;;;5036591;28;20096;-78
2023/10/14 08:13:31;;;;;;;155.35;8.45;;;;;;;;;;5072178;28;20087;-78
2023/10/14 08:15:57;;;;;;;87.25;5.75;;;;;;;;;;5056386;28;20052;-77
2023/10/14 08:18:24;;;;;;;14.70;2.92;;;;;;;;;;5053896;28;20120;-80
2023/10/14 08:20:53;;;;;;;26.42;2.42;;;13.10;99.90;;;;;;5061391;28;20499;-76
2023/10/14 08:23:20;;;;;;;10.82;2.65;;;;;;;;;;5073544;28;20044;-83
2023/10/14 08:25:47;;;;;;;13.25;2.05;;;;;;;;;;5071941;28;20075;-79
2023/10/14 08:28:13;;;;;;;10.43;2.08;;;13.20;99.90;;;;;;5060155;28;20091;-77
2023/10/14 08:30:45;;;;;;;15.70;2.63;;;;;;;;;;5060241;28;20044;-77
2023/10/14 08:33:12;;;;;;;12.55;1.83;;;;;;;;;;5072259;28;20028;-78
2023/10/14 08:35:42;;;;;;;10.63;2.40;;;;;;;;;;5047587;28;20045;-80
2023/10/14 08:38:14;;;;;;;14.55;2.22;;;;;;;;;;5052694;28;20041;-79
2023/10/14 08:40:40;;;;;;;13.20;2.53;;;13.70;99.90;;;;;;5058059;28;20048;-70
2023/10/14 08:43:09;;;;;;;11.77;2.10;;;;;;;;;;5071811;28;20114;-70
2023/10/14 08:45:38;;;;;;;13.35;2.03;;;13.60;99.90;;;;;;5065868;28;20044;-70
2023/10/14 08:48:05;;;;;;;11.18;2.72;;;;;;;;;;5071398;28;20048;-70
2023/10/14 08:50:34;;;;;;;16.10;2.80;;;;;;;;;;5058249;28;20073;-70
2023/10/14 08:53:08;;;;;;;9.50;1.90;;;;;;;;;;5065124;28;20119;-71
2023/10/14 08:55:35;;;;;;;14.43;2.15;;;;;;;;;;5057984;28;20040;-71
2023/10/14 08:58:02;;;;;;;12.60;2.60;;;13.30;99.90;;;;;;5034386;28;20041;-71
2023/10/14 09:00:29;;;;;;;12.75;2.90;;;13.60;99.90;;;;;;5057249;28;20052;-82
2023/10/14 09:02:56;;;;;;;16.75;2.35;;;;;;;;;;5055898;28;20036;-83
2023/10/14 09:05:24;;;;;;;6.35;1.80;;;;;;;;;;5056528;28;20182;-82
2023/10/14 09:07:51;;;;;;;12.90;2.03;;;;;;;;;;5055769;28;20028;-82
2023/10/14 09:10:24;;;;;;;13.75;1.90;;;;;;;;;;5072972;28;20126;-82
2023/10/14 09:13:04;;;;;;;13.05;2.20;;;;;;;;;;5072547;28;20048;-79
2023/10/14 09:15:38;;;;;;;9.82;2.50;;;14.00;99.90;;;;;;5053841;28;20056;-78
2023/10/14 09:18:10;;;;;;;10.50;2.40;;;14.00;99.90;;;;;;5045338;28;20033;-81
2023/10/14 09:20:37;;;;;;;17.50;2.63;;;;;;;;;;5053067;28;20480;-81
2023/10/14 09:23:21;;;;;;;12.73;1.77;;;14.00;98.70;;;;;;5067422;28;20053;-76
2023/10/14 09:25:58;;;;;;;10.05;1.70;;;;;;;;;;5055560;28;20512;-79
2023/10/14 09:28:25;;;;;;;14.68;2.00;;;;;;;;;;5052568;28;20086;-78
2023/10/14 09:30:52;;;;;;;9.60;1.83;;;;;;;;;;5074570;28;20037;-77
2023/10/14 09:33:27;;;;;;;13.40;2.05;;;13.60;99.90;;;;;;5074340;28;20161;-70
2023/10/14 09:35:54;;;;;;;7.82;1.75;;;;;;;;;;5074185;28;20051;-70
2023/10/14 09:38:24;;;;;;;4.30;1.15;;;13.00;99.90;;;;;;5073439;28;20127;-70
2023/10/14 09:40:55;;;;;;;5.85;1.10;;;12.80;99.90;;;;;;5057050;28;20048;-70
2023/10/14 09:43:23;;;;;;;5.50;1.10;;;;;;;;;;5052698;28;20060;-70
2023/10/14 09:45:51;;;;;;;4.53;0.80;;;12.80;99.90;;;;;;5039917;28;20041;-70
2023/10/14 09:48:18;;;;;;;4.30;1.00;;;;;;;;;;5063699;28;20056;-70
2023/10/14 09:50:45;;;;;;;6.72;1.70;;;;;;;;;;5044718;28;20372;-70
2023/10/14 09:53:14;;;;;;;11.43;1.23;;;;;;;;;;5060899;28;20040;-70
2023/10/14 09:55:43;;;;;;;4.38;1.33;;;;;;;;;;5066924;28;20059;-70
2023/10/14 09:58:13;;;;;;;8.05;1.75;;;13.10;99.90;;;;;;5043955;28;20087;-71
2023/10/14 10:00:40;;;;;;;9.15;1.30;;;;;;;;;;5059758;28;20051;-71
2023/10/14 10:03:06;;;;;;;7.25;1.85;;;;;;;;;;5060056;28;20505;-70
2023/10/14 10:05:39;;;;;;;7.97;1.70;;;;;;;;;;5033396;28;20066;-71
2023/10/14 10:08:17;;;;;;;6.88;1.55;;;;;;;;;;5059408;28;20512;-71
2023/10/14 10:10:44;;;;;;;6.93;1.50;;;;;;;;;;5066526;28;20557;-70
2023/10/14 10:13:12;;;;;;;9.35;1.77;;;;;;;;;;5063980;28;20078;-70
2023/10/14 10:15:40;;;;;;;9.05;1.52;;;;;;;;;;5064521;28;20055;-70
2023/10/14 10:18:16;;;;;;;6.72;1.67;;;;;;;;;;5058959;28;20044;-70
2023/10/14 10:20:52;;;;;;;15.60;2.13;;;;;;;;;;5060275;28;20073;-71
2023/10/14 10:23:18;;;;;;;10.50;1.90;;;;;;;;;;5062143;28;20063;-70
2023/10/14 10:25:52;;;;;;;10.85;2.13;;;13.80;97.60;;;;;;5065381;28;20506;-70
2023/10/14 10:28:27;;;;;;;11.05;2.13;;;;;;;;;;5045827;28;20041;-70
2023/10/14 10:31:03;;;;;;;17.27;2.20;;;13.90;98.40;;;;;;5067863;28;20040;-70
2023/10/14 10:33:49;;;;;;;15.30;2.72;;;;;;;;;;5058513;28;20120;-70
2023/10/14 10:36:30;;;;;;;11.10;2.25;;;13.90;98.30;;;;;;5058968;28;20037;-70
2023/10/14 10:39:15;;;;;;;7.90;1.98;;;13.80;98.70;;;;;;5047384;28;20424;-70
2023/10/14 10:41:42;;;;;;;17.10;2.00;;;;;;;;;;5058456;28;20106;-70
2023/10/14 10:44:12;;;;;;;11.82;2.08;;;;;;;;;;5060398;28;20045;-70
2023/10/14 10:46:39;;;;;;;9.20;1.90;;;;;;;;;;5068292;28;20067;-70
2023/10/14 10:49:06;;;;;;;13.57;2.45;;;;;;;;;;5055947;28;20465;-70
2023/10/14 10:51:33;;;;;;;12.85;2.72;;;;;;;;;;5061792;28;20086;-70
2023/10/14 10:53:59;;;;;;;11.27;2.10;;;14.30;99.90;;;;;;5061046;28;20123;-71
2023/10/14 10:56:34;;;;;;;12.70;2.58;;;13.40;98.00;;;;;;5046903;28;20040;-70
2023/10/14 10:59:04;;;;;;;19.25;2.42;;;;;;;;;;5055492;28;20044;-70
2023/10/14 11:01:33;;;;;;;16.85;2.47;;;;;;;;;;5056233;28;20120;-70
2023/10/14 11:04:08;;;;;;;11.15;2.22;;;13.10;99.80;;;;;;5046017;28;20048;-70
2023/10/14 11:06:35;;;;;;;12.73;2.58;;;13.30;99.90;;;;;;5071096;28;20075;-70
2023/10/14 11:09:01;;;;;;;12.98;2.30;;;;;;;;;;5041676;28;20052;-70
2023/10/14 11:11:30;;;;;;;14.65;2.60;;;;;;;;;;5059414;28;20078;-70
2023/10/14 11:13:56;;;;;;;9.32;2.33;;;;;;;;;;5063913;28;20078;-70
2023/10/14 11:16:25;;;;;;;11.88;2.20;;;;;;;;;;5054817;28;20041;-70
2023/10/14 11:18:54;;;;;;;13.93;2.28;;;;;;;;;;5066744;28;20052;-70
2023/10/14 11:21:21;;;;;;;10.98;2.28;;;;;;;;;;5057942;28;20052;-70
2023/10/14 11:23:47;;;;;;;12.52;2.00;;;;;;;;;;5057779;28;20099;-70
2023/10/14 11:26:15;;;;;;;11.25;2.03;;;;;;;;;;5057743;28;20128;-70
2023/10/14 11:28:45;;;;;;;11.60;1.70;;;;;;;;;;5067337;28;20471;-70
2023/10/14 11:31:11;;;;;;;15.00;2.60;;;;;;;;;;5061223;28;20504;-70
2023/10/14 11:33:37;;;;;;;10.75;2.38;;;;;;;;;;5057399;28;20132;-69
2023/10/14 11:36:04;;;;;;;10.95;2.00;;;;;;;;;;5063222;28;20033;-69
2023/10/14 11:38:31;;;;;;;15.77;3.05;;;;;;;;;;5072260;28;20052;-70
2023/10/14 11:41:02;;;;;;;18.25;2.85;;;14.30;99.60;;;;;;5045626;28;20171;-70
2023/10/14 11:43:30;;;;;;;11.80;2.05;;;;;;;;;;5071354;28;20051;-70
2023/10/14 11:45:56;;;;;;;12.45;2.25;;;;;;;;;;5071726;28;20047;-70
2023/10/14 11:48:33;;;;;;;14.50;2.40;;;13.90;95.40;;;;;;5072262;28;20076;-70
2023/10/14 11:51:03;;;;;;;8.63;2.10;;;13.80;94.00;;;;;;5065040;28;20040;-70
2023/10/14 11:53:32;;;;;;;11.88;2.22;;;;;;;;;;5056479;28;20048;-70
2023/10/14 11:56:03;;;;;;;11.75;2.20;;;14.00;93.30;;;;;;5053711;28;20044;-70
2023/10/14 11:58:40;;;;;;;7.97;2.03;;;14.00;93.30;;;;;;5071869;28;20089;-70
2023/10/14 12:01:06;;;;;;;9.77;1.92;;;;;;;;;;5055207;28;20041;-70
2023/10/14 12:03:32;;;;;;;7.13;2.05;;;;;;;;;;5071637;28;20051;-70
2023/10/14 12:05:59;;;;;;;10.00;2.65;;;;;;;;;;5071630;28;20113;-70
2023/10/14 12:08:32;;;;;;;8.23;2.00;;;;;;;;;;5064828;28;20045;-70
2023/10/14 12:10:58;;;;;;;11.30;2.50;;;;;;;;;;5057006;28;20509;-70
2023/10/14 12:13:25;;;;;;;9.23;1.55;;;;;;;;;;5054238;28;20064;-69
2023/10/14 12:15:52;;;;;;;12.60;1.98;;;;;;;;;;5062911;28;20480;-70
2023/10/14 12:18:19;;;;;;;12.43;2.50;;;;;;;;;;5056444;28;20033;-69
2023/10/14 12:20:47;;;;;;;13.00;2.20;;;;;;;;;;5062247;28;20447;-70
2023/10/14 12:23:14;;;;;;;9.73;2.08;;;;;;;;;;5057668;28;20044;-70
2023/10/14 12:25:40;;;;;;;12.32;2.53;;;;;;;;;;5063267;28;20424;-69
2023/10/14 12:28:06;;;;;;;8.18;1.60;;;;;;;;;;5059739;28;20078;-69
2023/10/14 12:30:39;;;;;;;12.50;2.55;;;;;;;;;;5071524;28;20094;-70
2023/10/14 12:33:07;;;;;;;12.60;2.10;;;14.80;92.00;;;;;;5065205;28;20063;-70
2023/10/14 12:35:33;;;;;;;12.13;2.35;;;;;;;;;;5059730;28;20048;-69
2023/10/14 12:38:00;;;;;;;13.15;2.08;;;;;;;;;;5055635;28;20561;-70
2023/10/14 12:40:29;;;;;;;14.73;2.90;;;;;;;;;;5052248;28;20044;-70
2023/10/14 12:43:03;;;;;;;14.27;2.10;;;;;;;;;;5055319;28;20037;-70
2023/10/14 12:45:29;;;;;;;15.10;2.50;;;;;;;;;;5026330;28;20044;-70
2023/10/14 12:48:09;;;;;;;14.68;2.58;;;;;;;;;;5071439;28;20048;-70
2023/10/14 12:50:40;;;;;;;12.77;2.50;;;;;;;;;;5064921;28;20028;-70
2023/10/14 12:53:08;;;;;;;11.70;2.70;;;;;;;;;;5064088;28;20032;-70
2023/10/14 12:55:35;;;;;;;7.40;2.13;;;;;;;;;;5064097;28;20066;-70
2023/10/14 12:58:02;;;;;;;10.15;2.50;;;;;;;;;;5059808;28;20041;-70
2023/10/14 13:00:31;;;;;;;10.02;2.13;;;;;;;;;;5068968;28;20041;-71
2023/10/14 13:02:58;;;;;;;9.70;1.83;;;;;;;;;;5062292;28;20086;-71
2023/10/14 13:05:25;;;;;;;8.57;2.47;;;14.00;91.60;;;;;;5052195;28;20419;-71
2023/10/14 13:07:52;;;;;;;13.00;1.95;;;;;;;;;;5061497;28;20041;-70
2023/10/14 13:10:22;;;;;;;9.30;2.38;;;;;;;;;;5062098;28;20473;-70
2023/10/14 13:12:49;;;;;;;8.63;2.05;;;;;;;;;;5074457;28;20028;-70
2023/10/14 13:15:29;;;;;;;7.93;1.80;;;14.40;91.10;;;;;;5067718;28;20523;-70
2023/10/14 13:17:57;;;;;;;11.70;2.38;;;;;;;;;;5067450;28;20089;-69
2023/10/14 13:20:26;;;;;;;10.13;1.88;;;;;;;;;;5057262;28;20032;-69
2023/10/14 13:22:59;;;;;;;12.32;2.10;;;14.30;91.40;;;;;;5056479;28;20044;-70
2023/10/14 13:25:26;;;;;;;11.65;2.08;;;;;;;;;;5055595;28;20134;-70
2023/10/14 13:27:53;;;;;;;8.10;2.38;;;13.80;91.70;;;;;;5066707;28;20098;-70
2023/10/14 13:30:22;;;;;;;11.63;2.17;;;13.60;92.20;;;;;;5071942;28;20155;-69
2023/10/14 13:32:55;;;;;;;10.25;2.25;;;13.60;92.00;;;;;;5068822;28;20076;-69
2023/10/14 13:35:21;;;;;;;10.32;1.92;;;;;;;;;;5067172;28;20079;-69
2023/10/14 13:37:48;;;;;;;15.10;2.75;;;;;;;;;;5054319;28;20547;-69
2023/10/14 13:40:20;;;;;;;9.32;1.98;;;;;;;;;;5037176;28;20389;-69
2023/10/14 13:42:48;;;;;;;15.80;2.28;;;;;;;;;;5054057;28;20124;-69
2023/10/14 13:45:15;;;;;;;10.85;1.77;;;;;;;;;;5054867;28;20094;-69
2023/10/14 13:47:41;;;;;;;10.52;1.80;;;;;;;;;;5058726;28;20061;-69
2023/10/14 13:50:11;;;;;;;10.63;2.30;;;;;;;;;;5068859;28;20044;-69
2023/10/14 13:52:38;;;;;;;9.23;1.90;;;;;;;;;;5063388;28;20115;-69
2023/10/14 13:55:04;;;;;;;7.03;1.85;;;;;;;;;;5047553;28;20036;-69
2023/10/14 13:57:32;;;;;;;8.32;1.75;;;;;;;;;;5066539;28;20080;-69
2023/10/14 13:59:58;;;;;;;6.47;1.70;;;;;;;;;;5054650;28;20044;-69
2023/10/14 14:02:24;;;;;;;4.45;1.50;;;;;;;;;;5066728;28;20045;-69
2023/10/14 14:04:50;;;;;;;8.90;1.77;;;;;;;;;;5053814;28;20102;-69
2023/10/14 14:07:17;;;;;;;6.10;1.90;;;;;;;;;;5056182;28;20041;-69
2023/10/14 14:09:43;;;;;;;7.10;1.85;;;;;;;;;;5065988;28;20053;-69
2023/10/14 14:12:09;;;;;;;5.53;1.80;;;;;;;;;;5053438;28;20048;-69
2023/10/14 14:14:38;;;;;;;10.77;1.90;;;;;;;;;;5061835;28;20344;-69
2023/10/14 14:17:04;;;;;;;9.57;2.00;;;;;;;;;;5073774;28;20040;-69
2023/10/14 14:19:31;;;;;;;9.55;2.25;;;;;;;;;;5073538;28;20052;-69
2023/10/14 14:21:58;;;;;;;9.05;1.85;;;;;;;;;;5068596;28;20469;-68
2023/10/14 14:24:24;;;;;;;9.30;1.88;;;;;;;;;;5073532;28;20080;-70
2023/10/14 14:26:51;;;;;;;8.82;2.00;;;;;;;;;;5068685;28;20048;-69
2023/10/14 14:29:17;;;;;;;8.13;1.60;;;;;;;;;;5069815;28;20051;-69
2023/10/14 14:31:44;;;;;;;7.45;1.50;;;;;;;;;;5057162;28;20036;-76
2023/10/14 14:34:12;;;;;;;8.75;2.13;;;;;;;;;;5073404;28;20520;-69
2023/10/14 14:36:39;;;;;;;10.85;1.75;;;;;;;;;;5070073;28;20045;-69
2023/10/14 14:39:05;;;;;;;16.20;2.50;;;;;;;;;;5053484;28;20052;-70
2023/10/14 14:41:31;;;;;;;8.88;2.10;;;;;;;;;;5038994;28;20111;-69
2023/10/14 14:43:57;;;;;;;8.88;1.80;;;;;;;;;;5072916;28;20143;-69
2023/10/14 14:46:23;;;;;;;6.88;1.58;;;;;;;;;;5054554;28;20094;-69
2023/10/14 14:48:50;;;;;;;8.00;2.00;;;;;;;;;;5036088;28;20120;-70
2023/10/14 14:51:17;;;;;;;4.90;1.42;;;;;;;;;;5068301;28;20040;-70
2023/10/14 14:53:44;;;;;;;8.88;1.70;;;;;;;;;;5062458;28;20117;-70
2023/10/14 14:56:11;;;;;;;5.75;1.60;;;;;;;;;;5072522;28;20131;-70
2023/10/14 14:58:37;;;;;;;11.02;2.00;;;;;;;;;;5057500;28;20052;-69
2023/10/14 15:01:04;;;;;;;11.30;1.77;;;;;;;;;;5065492;28;20056;-69
2023/10/14 15:03:30;;;;;;;10.07;1.73;;;;;;;;;;5063819;28;20118;-69
2023/10/14 15:05:58;;;;;;;8.75;1.88;;;;;;;;;;5055859;28;20496;-70